Time;durP1;ratioP1;P1;durP2;ratioP2;P2;SDS_P1;SDS_P2;PMS_P1;PMS_P2;Temp;Humidity;BMP_temperature;BMP_pressure;BME280_temperature;BME280_humidity;BME280_pressure;Samples;Min_cycle;Max_cycle;Signal;HPM_P1;HPM_P2
2021/05/08 00:02:00;;;;;;;2.17;1.42;;;6.30;99.90;;;;;;5090960;28;20024;-76
2021/05/08 00:04:25;;;;;;;1.23;0.90;;;6.20;99.90;;;;;;5088211;28;20032;-76
2021/05/08 00:06:51;;;;;;;1.42;1.00;;;6.10;99.90;;;;;;5089611;28;20105;-77
2021/05/08 00:09:17;;;;;;;2.78;1.30;;;6.00;99.90;;;;;;5092318;28;20497;-77
2021/05/08 00:11:42;;;;;;;1.77;1.30;;;6.00;99.90;;;;;;5089436;28;20016;-77
2021/05/08 00:14:08;;;;;;;1.67;1.20;;;6.00;99.90;;;;;;5091203;28;20024;-76
2021/05/08 00:16:34;;;;;;;1.13;1.02;;;5.90;99.90;;;;;;5089067;28;20028;-77
2021/05/08 00:19:00;;;;;;;1.73;1.27;;;5.80;99.90;;;;;;5089204;28;20050;-76
2021/05/08 00:21:25;;;;;;;2.47;1.00;;;5.60;99.90;;;;;;5090886;28;20028;-76
2021/05/08 00:23:51;;;;;;;1.52;1.20;;;5.60;99.90;;;;;;5091531;28;20043;-76
2021/05/08 00:26:16;;;;;;;2.92;1.73;;;5.70;99.90;;;;;;5090490;28;20617;-76
2021/05/08 00:28:42;;;;;;;4.22;1.55;;;5.60;99.90;;;;;;5089622;28;20028;-76
2021/05/08 00:31:07;;;;;;;2.08;1.45;;;5.60;99.90;;;;;;5090083;28;20028;-76
2021/05/08 00:33:33;;;;;;;2.80;1.52;;;5.70;99.90;;;;;;5089151;28;20028;-77
2021/05/08 00:35:58;;;;;;;3.60;1.27;;;5.70;99.90;;;;;;5089362;28;20036;-76
2021/05/08 00:38:24;;;;;;;2.05;1.42;;;5.80;99.90;;;;;;5091206;28;20039;-76
2021/05/08 00:40:49;;;;;;;1.80;1.30;;;5.70;99.90;;;;;;5089971;28;20020;-76
2021/05/08 00:43:16;;;;;;;2.08;1.30;;;5.80;99.90;;;;;;5091042;28;20032;-77
2021/05/08 00:45:41;;;;;;;3.28;1.58;;;5.70;99.90;;;;;;5090802;28;20016;-77
2021/05/08 00:48:10;;;;;;;2.28;1.65;;;5.60;99.90;;;;;;5088637;28;20032;-76
2021/05/08 00:50:35;;;;;;;1.60;1.20;;;5.40;99.90;;;;;;5091725;28;20048;-77
2021/05/08 00:53:03;;;;;;;5.80;1.77;;;5.40;99.90;;;;;;5089215;28;20062;-76
2021/05/08 00:55:29;;;;;;;1.25;1.17;;;5.30;99.90;;;;;;5088883;28;20024;-76
2021/05/08 00:57:55;;;;;;;2.25;1.27;;;5.20;99.90;;;;;;5090241;28;20016;-76
2021/05/08 01:00:21;;;;;;;5.70;1.83;;;5.10;99.90;;;;;;5088526;28;20038;-76
2021/05/08 01:02:47;;;;;;;1.38;1.15;;;5.00;99.90;;;;;;5091026;28;20386;-76
2021/05/08 01:05:13;;;;;;;1.67;1.25;;;4.90;99.90;;;;;;5089610;28;20016;-76
2021/05/08 01:07:39;;;;;;;1.92;1.30;;;4.80;99.90;;;;;;5088468;28;20024;-76
2021/05/08 01:10:07;;;;;;;1.52;1.35;;;4.90;99.90;;;;;;5090046;28;20028;-76
2021/05/08 01:12:33;;;;;;;1.92;1.38;;;5.00;99.90;;;;;;5088866;28;20028;-76
2021/05/08 01:14:59;;;;;;;3.00;1.42;;;5.00;99.90;;;;;;5090161;28;20028;-76
2021/05/08 01:17:26;;;;;;;1.95;1.60;;;5.00;99.90;;;;;;5088749;28;20476;-76
2021/05/08 01:19:51;;;;;;;3.50;1.58;;;5.00;99.90;;;;;;5089008;28;20028;-76
2021/05/08 01:22:17;;;;;;;2.15;1.60;;;5.10;99.90;;;;;;5084580;28;20112;-76
2021/05/08 01:24:42;;;;;;;1.92;1.40;;;5.20;99.90;;;;;;5084246;28;20025;-76
2021/05/08 01:27:08;;;;;;;1.90;1.45;;;5.30;99.90;;;;;;5083335;28;20020;-76
2021/05/08 01:29:33;;;;;;;1.83;1.27;;;5.40;99.90;;;;;;5090738;28;20513;-76
2021/05/08 01:31:59;;;;;;;4.82;1.92;;;5.40;99.90;;;;;;5088209;28;20022;-76
2021/05/08 01:34:24;;;;;;;2.42;1.58;;;5.40;99.90;;;;;;5090287;28;20032;-76
2021/05/08 01:36:50;;;;;;;2.00;1.75;;;5.50;99.90;;;;;;5088861;28;20470;-76
2021/05/08 01:39:15;;;;;;;2.63;1.73;;;5.50;99.90;;;;;;5090037;28;20058;-76
2021/05/08 01:41:41;;;;;;;2.67;1.63;;;5.50;99.90;;;;;;5085496;28;20133;-76
2021/05/08 01:44:09;;;;;;;4.35;2.13;;;5.50;99.90;;;;;;5088324;28;20645;-76
2021/05/08 01:46:36;;;;;;;2.20;1.55;;;5.50;99.90;;;;;;5088700;28;20081;-76
2021/05/08 01:49:03;;;;;;;2.67;1.60;;;5.50;99.90;;;;;;5089018;28;20061;-77
2021/05/08 01:51:28;;;;;;;3.47;1.52;;;5.40;99.90;;;;;;5087716;28;20050;-76
2021/05/08 01:53:54;;;;;;;5.03;1.92;;;5.50;99.90;;;;;;5089200;28;20459;-76
2021/05/08 01:56:19;;;;;;;2.53;1.60;;;5.40;99.90;;;;;;5087052;28;20024;-76
2021/05/08 01:58:45;;;;;;;2.67;1.73;;;5.50;99.90;;;;;;5088060;28;20331;-76
2021/05/08 02:01:10;;;;;;;3.17;1.75;;;5.40;99.90;;;;;;5076833;28;20730;-76
2021/05/08 02:03:36;;;;;;;2.85;1.73;;;5.30;99.90;;;;;;5088187;28;20106;-76
2021/05/08 02:06:02;;;;;;;3.40;1.90;;;5.30;99.90;;;;;;5088617;28;20058;-76
2021/05/08 02:08:28;;;;;;;4.38;2.15;;;5.40;99.90;;;;;;5087997;28;20032;-76
2021/05/08 02:10:53;;;;;;;1.75;1.30;;;5.30;99.90;;;;;;5086307;28;20024;-77
2021/05/08 02:13:19;;;;;;;1.63;1.33;;;5.20;99.90;;;;;;5087905;28;20028;-76
2021/05/08 02:15:44;;;;;;;1.90;1.48;;;5.00;99.90;;;;;;5089349;28;20012;-76
2021/05/08 02:18:10;;;;;;;2.25;1.48;;;4.80;99.90;;;;;;5086203;28;20024;-76
2021/05/08 02:20:40;;;;;;;1.92;1.50;;;4.70;99.90;;;;;;5089209;28;20024;-76
2021/05/08 02:23:08;;;;;;;1.80;1.40;;;4.60;99.90;;;;;;5082892;28;20028;-77
2021/05/08 02:25:34;;;;;;;3.80;1.65;;;4.50;99.90;;;;;;5087313;28;20059;-76
2021/05/08 02:28:00;;;;;;;2.65;1.75;;;4.40;99.90;;;;;;5086308;28;20055;-76
2021/05/08 02:30:44;;;;;;;2.53;1.60;;;4.30;99.90;;;;;;5089058;28;20039;-76
2021/05/08 02:33:09;;;;;;;2.78;1.85;;;4.30;99.90;;;;;;5086909;28;20434;-76
2021/05/08 02:35:36;;;;;;;5.70;1.98;;;4.30;99.90;;;;;;5089495;28;20433;-76
2021/05/08 02:38:03;;;;;;;2.83;1.45;;;4.30;99.90;;;;;;5087064;28;20036;-77
2021/05/08 02:40:30;;;;;;;2.70;1.70;;;4.30;99.90;;;;;;5088925;28;20035;-77
2021/05/08 02:42:57;;;;;;;2.55;1.58;;;4.20;99.90;;;;;;5086095;28;20395;-76
2021/05/08 02:45:23;;;;;;;3.45;1.80;;;4.10;99.90;;;;;;5089044;28;20661;-76
2021/05/08 02:47:50;;;;;;;2.03;1.75;;;4.00;99.90;;;;;;5088397;28;20021;-76
2021/05/08 02:50:18;;;;;;;1.33;1.23;;;4.00;99.90;;;;;;5086011;28;20130;-76
2021/05/08 02:52:43;;;;;;;2.20;1.70;;;3.90;99.90;;;;;;5086939;28;20036;-76
2021/05/08 02:55:10;;;;;;;2.95;1.73;;;3.90;99.90;;;;;;5083622;28;20023;-76
2021/05/08 02:57:36;;;;;;;5.03;2.05;;;4.00;99.90;;;;;;5088845;28;20058;-76
2021/05/08 03:00:11;;;;;;;3.05;1.63;;;4.00;99.90;;;;;;5087232;28;20024;-76
2021/05/08 03:02:37;;;;;;;4.15;1.67;;;3.90;99.90;;;;;;5086775;28;20032;-77
2021/05/08 03:05:03;;;;;;;1.70;1.48;;;3.90;99.90;;;;;;5087504;28;20363;-76
2021/05/08 03:07:29;;;;;;;6.22;1.95;;;3.90;99.90;;;;;;5086543;28;20020;-77
2021/05/08 03:09:54;;;;;;;2.45;1.30;;;3.80;99.90;;;;;;5087774;28;20108;-76
2021/05/08 03:12:20;;;;;;;7.13;1.50;;;3.80;99.90;;;;;;5086446;28;20067;-77
2021/05/08 03:14:45;;;;;;;3.30;1.55;;;3.70;99.90;;;;;;5087100;28;20042;-76
2021/05/08 03:17:11;;;;;;;2.17;1.98;;;3.80;99.90;;;;;;5086844;28;20205;-76
2021/05/08 03:19:36;;;;;;;1.90;1.55;;;3.80;99.90;;;;;;5084543;28;20393;-77
2021/05/08 03:22:03;;;;;;;2.53;1.95;;;3.90;99.90;;;;;;5084231;28;20024;-76
2021/05/08 03:24:29;;;;;;;2.92;1.77;;;4.00;99.90;;;;;;5084831;28;20034;-76
2021/05/08 03:26:54;;;;;;;3.00;1.80;;;4.30;99.90;;;;;;5086463;28;20019;-77
2021/05/08 03:29:20;;;;;;;6.90;1.73;;;4.40;99.90;;;;;;5087684;28;20040;-76
2021/05/08 03:31:45;;;;;;;2.58;1.85;;;4.50;99.90;;;;;;5086082;28;20039;-77
2021/05/08 03:34:11;;;;;;;5.03;1.80;;;4.50;99.90;;;;;;5087454;28;20025;-77
2021/05/08 03:36:36;;;;;;;9.48;3.83;;;4.60;99.90;;;;;;5085746;28;20028;-76
2021/05/08 03:39:03;;;;;;;3.58;1.88;;;4.60;99.90;;;;;;5088453;28;20060;-76
2021/05/08 03:41:29;;;;;;;3.95;2.15;;;4.70;99.90;;;;;;5082636;28;20016;-76
2021/05/08 03:43:54;;;;;;;5.85;2.38;;;4.80;99.90;;;;;;5088758;28;20027;-76
2021/05/08 03:46:20;;;;;;;2.55;1.80;;;4.80;99.90;;;;;;5085999;28;20036;-76
2021/05/08 03:48:46;;;;;;;3.80;1.40;;;4.70;99.90;;;;;;5085145;28;20398;-76
2021/05/08 03:51:11;;;;;;;4.40;1.58;;;4.80;99.90;;;;;;5087626;28;20672;-77
2021/05/08 03:53:37;;;;;;;5.07;2.03;;;4.90;99.90;;;;;;5087147;28;20040;-77
2021/05/08 03:56:03;;;;;;;1.48;1.23;;;4.90;99.90;;;;;;5085234;28;20035;-76
2021/05/08 03:58:30;;;;;;;2.10;1.65;;;5.00;99.90;;;;;;5086326;28;20035;-76
2021/05/08 04:00:57;;;;;;;17.10;2.47;;;5.00;99.90;;;;;;5077623;28;20518;-77
2021/05/08 04:03:23;;;;;;;2.50;1.65;;;5.00;99.90;;;;;;5086907;28;20371;-76
2021/05/08 04:05:48;;;;;;;2.30;1.83;;;5.00;99.90;;;;;;5087698;28;20076;-77
2021/05/08 04:08:14;;;;;;;5.53;1.83;;;5.00;99.90;;;;;;5085195;28;20389;-76
2021/05/08 04:10:40;;;;;;;3.22;1.95;;;5.10;99.90;;;;;;5083218;28;20032;-76
2021/05/08 04:13:06;;;;;;;2.22;1.83;;;5.10;99.90;;;;;;5077514;28;20042;-76
2021/05/08 04:15:32;;;;;;;2.97;1.95;;;5.20;99.90;;;;;;5077039;28;20020;-76
2021/05/08 04:17:57;;;;;;;4.32;2.10;;;5.20;99.90;;;;;;5079020;28;20110;-76
2021/05/08 04:20:23;;;;;;;9.48;2.03;;;5.30;99.90;;;;;;5080612;28;20027;-76
2021/05/08 04:22:49;;;;;;;3.83;2.05;;;5.20;99.90;;;;;;5079847;28;20040;-76
2021/05/08 04:25:14;;;;;;;2.25;1.73;;;5.20;99.90;;;;;;5081622;28;20032;-76
2021/05/08 04:27:40;;;;;;;3.45;2.10;;;5.30;99.90;;;;;;5077243;28;20031;-76
2021/05/08 04:30:07;;;;;;;2.58;1.73;;;5.40;99.90;;;;;;5080668;28;20040;-76
2021/05/08 04:32:32;;;;;;;4.30;1.98;;;5.30;99.90;;;;;;5083699;28;20028;-76
2021/05/08 04:34:58;;;;;;;5.00;1.80;;;5.40;99.90;;;;;;5079253;28;20035;-76
2021/05/08 04:37:23;;;;;;;2.90;1.80;;;5.40;99.90;;;;;;5084194;28;20378;-76
2021/05/08 04:39:49;;;;;;;3.35;1.70;;;5.40;99.90;;;;;;5085948;28;20134;-76
2021/05/08 04:42:14;;;;;;;2.65;2.00;;;5.40;99.90;;;;;;5080950;28;20367;-76
2021/05/08 04:44:40;;;;;;;4.85;1.90;;;5.40;99.90;;;;;;5081479;28;20052;-76
2021/05/08 04:47:06;;;;;;;6.03;2.28;;;5.50;99.90;;;;;;5080078;28;20032;-76
2021/05/08 04:49:32;;;;;;;3.65;2.25;;;5.60;99.90;;;;;;5078932;28;20035;-76
2021/05/08 04:51:57;;;;;;;2.28;1.73;;;5.60;99.90;;;;;;5081500;28;20514;-76
2021/05/08 04:54:23;;;;;;;6.13;2.90;;;5.70;99.90;;;;;;5079821;28;20024;-76
2021/05/08 04:56:49;;;;;;;2.92;1.90;;;5.80;99.90;;;;;;5084708;28;20106;-76
2021/05/08 04:59:14;;;;;;;2.97;1.85;;;6.00;99.90;;;;;;5084442;28;20095;-76
2021/05/08 05:01:40;;;;;;;2.95;1.85;;;6.10;99.90;;;;;;5083548;28;20523;-76
2021/05/08 05:04:05;;;;;;;5.32;1.75;;;6.20;99.90;;;;;;5084640;28;20028;-76
2021/05/08 05:06:31;;;;;;;2.08;1.45;;;6.40;99.90;;;;;;5084704;28;20513;-76
2021/05/08 05:08:57;;;;;;;3.05;1.77;;;6.50;99.90;;;;;;5085209;28;20138;-77
2021/05/08 05:11:22;;;;;;;3.38;1.70;;;6.50;99.90;;;;;;5079458;28;20656;-76
2021/05/08 05:13:51;;;;;;;3.55;1.98;;;6.70;99.90;;;;;;5081835;28;20039;-76
2021/05/08 05:16:17;;;;;;;4.32;1.58;;;6.80;99.90;;;;;;5078476;28;20052;-76
2021/05/08 05:18:43;;;;;;;7.55;1.48;;;6.80;99.90;;;;;;5080546;28;20020;-76
2021/05/08 05:21:09;;;;;;;3.70;1.77;;;6.70;99.90;;;;;;5083109;28;20024;-76
2021/05/08 05:23:35;;;;;;;5.72;1.52;;;6.80;99.90;;;;;;5084925;28;20024;-76
2021/05/08 05:26:01;;;;;;;9.38;1.50;;;6.70;99.90;;;;;;5084641;28;20032;-76
2021/05/08 05:28:28;;;;;;;3.47;1.95;;;6.70;99.90;;;;;;5081800;28;20490;-76
2021/05/08 05:30:55;;;;;;;4.25;2.05;;;6.60;99.90;;;;;;5084622;28;20016;-76
2021/05/08 05:33:21;;;;;;;6.93;2.10;;;6.70;99.90;;;;;;5080813;28;20107;-74
2021/05/08 05:35:50;;;;;;;5.72;2.20;;;6.70;99.90;;;;;;5080255;28;20030;-72
2021/05/08 05:38:16;;;;;;;2.38;1.70;;;6.80;99.90;;;;;;5078475;28;20501;-72
2021/05/08 05:40:43;;;;;;;5.57;2.05;;;6.80;99.90;;;;;;5078747;28;20734;-71
2021/05/08 05:43:09;;;;;;;2.10;1.50;;;6.80;99.90;;;;;;5081819;28;20035;-73
2021/05/08 05:45:34;;;;;;;4.18;2.10;;;6.80;99.90;;;;;;5079038;28;20494;-72
2021/05/08 05:48:04;;;;;;;21.42;2.47;;;6.90;99.90;;;;;;5083319;28;20036;-73
2021/05/08 05:50:31;;;;;;;2.03;1.33;;;7.10;99.90;;;;;;5083980;28;20052;-72
2021/05/08 05:52:56;;;;;;;5.03;1.67;;;7.20;99.90;;;;;;5083592;28;20486;-72
2021/05/08 05:55:23;;;;;;;1.85;1.30;;;7.40;99.90;;;;;;5084070;28;20028;-72
2021/05/08 05:57:50;;;;;;;1.48;1.10;;;7.60;99.90;;;;;;5084446;28;20034;-72
2021/05/08 06:00:16;;;;;;;5.05;1.65;;;7.70;99.90;;;;;;5074381;28;20031;-73
2021/05/08 06:02:42;;;;;;;3.05;1.88;;;7.90;99.90;;;;;;5079232;28;20028;-73
2021/05/08 06:05:08;;;;;;;5.38;1.92;;;8.00;99.90;;;;;;5083163;28;20036;-72
2021/05/08 06:07:34;;;;;;;2.00;1.45;;;8.10;99.90;;;;;;5076333;28;20126;-73
2021/05/08 06:09:59;;;;;;;5.22;1.77;;;8.10;99.90;;;;;;5080418;28;20103;-72
2021/05/08 06:12:25;;;;;;;4.57;1.13;;;8.30;99.90;;;;;;5076394;28;20393;-73
2021/05/08 06:14:51;;;;;;;7.55;2.38;;;8.30;99.90;;;;;;5079362;28;20020;-71
2021/05/08 06:17:16;;;;;;;2.15;1.30;;;8.30;99.90;;;;;;5079675;28;20081;-71
2021/05/08 06:19:42;;;;;;;15.80;1.75;;;8.40;99.90;;;;;;5085101;28;20081;-72
2021/05/08 06:22:07;;;;;;;2.80;1.20;;;8.50;99.90;;;;;;5082096;28;20474;-72
2021/05/08 06:24:32;;;;;;;5.25;1.85;;;8.50;99.90;;;;;;5085396;28;20056;-72
2021/05/08 06:26:58;;;;;;;2.28;1.58;;;8.50;99.90;;;;;;5081598;28;20417;-73
2021/05/08 06:29:23;;;;;;;6.20;1.52;;;8.50;99.90;;;;;;5084585;28;20035;-72
2021/05/08 06:31:49;;;;;;;4.75;1.67;;;8.50;99.90;;;;;;5081201;28;20073;-77
2021/05/08 06:34:14;;;;;;;2.80;1.42;;;8.60;99.90;;;;;;5080564;28;20510;-78
2021/05/08 06:36:40;;;;;;;7.10;1.65;;;8.70;99.90;;;;;;5083104;28;20024;-77
2021/05/08 06:39:05;;;;;;;9.00;1.73;;;8.80;99.90;;;;;;5084111;28;20402;-78
2021/05/08 06:41:31;;;;;;;6.35;1.70;;;8.80;99.90;;;;;;5083553;28;20103;-78
2021/05/08 06:43:57;;;;;;;3.25;0.98;;;8.80;99.90;;;;;;5077111;28;20587;-78
2021/05/08 06:46:22;;;;;;;4.03;1.48;;;8.80;99.90;;;;;;5077940;28;20023;-78
2021/05/08 06:48:48;;;;;;;2.33;0.90;;;8.90;99.90;;;;;;5079064;28;20024;-78
2021/05/08 06:51:13;;;;;;;5.03;1.30;;;8.90;99.90;;;;;;5077624;28;20761;-79
2021/05/08 06:53:40;;;;;;;7.95;1.30;;;8.70;99.90;;;;;;5078860;28;20036;-79
2021/05/08 06:56:06;;;;;;;5.78;1.40;;;8.70;99.90;;;;;;5077363;28;20707;-72
2021/05/08 06:58:31;;;;;;;1.35;1.10;;;8.60;99.90;;;;;;5079866;28;20020;-72
2021/05/08 07:00:57;;;;;;;5.32;1.80;;;8.70;99.90;;;;;;5078049;28;20020;-71
2021/05/08 07:03:22;;;;;;;1.55;1.00;;;8.70;99.90;;;;;;5076540;28;20023;-71
2021/05/08 07:05:48;;;;;;;6.63;1.80;;;8.70;99.90;;;;;;5083722;28;20150;-71
2021/05/08 07:08:13;;;;;;;3.30;1.25;;;8.80;99.90;;;;;;5076982;28;20024;-71
2021/05/08 07:10:44;;;;;;;4.15;1.40;;;8.80;99.90;;;;;;5084169;28;20493;-72
2021/05/08 07:13:10;;;;;;;6.40;2.00;;;8.90;99.90;;;;;;5076143;28;20032;-71
2021/05/08 07:15:35;;;;;;;1.85;1.45;;;8.90;99.90;;;;;;5076760;28;20277;-72
2021/05/08 07:18:03;;;;;;;4.00;1.35;;;9.00;99.90;;;;;;5079098;28;20024;-75
2021/05/08 07:20:29;;;;;;;2.80;1.17;;;9.00;99.90;;;;;;5077505;28;20170;-75
2021/05/08 07:22:55;;;;;;;8.63;1.98;;;9.00;99.90;;;;;;5077894;28;20134;-75
2021/05/08 07:25:20;;;;;;;2.80;1.67;;;9.00;99.90;;;;;;5076126;28;20095;-76
2021/05/08 07:27:46;;;;;;;4.40;1.25;;;9.00;99.70;;;;;;5066875;28;20028;-75
2021/05/08 07:30:12;;;;;;;9.57;1.20;;;9.00;99.00;;;;;;5080257;28;20430;-75
2021/05/08 07:32:38;;;;;;;3.28;0.95;;;9.00;98.80;;;;;;5078599;28;20097;-76
2021/05/08 07:35:05;;;;;;;2.70;1.30;;;9.00;99.10;;;;;;5078881;28;20054;-77
2021/05/08 07:37:31;;;;;;;6.57;1.10;;;9.10;99.10;;;;;;5077506;28;20020;-78
2021/05/08 07:39:56;;;;;;;3.50;1.92;;;9.20;97.50;;;;;;5078175;28;20585;-76
2021/05/08 07:42:22;;;;;;;3.13;1.10;;;9.20;96.50;;;;;;5082432;28;20032;-76
2021/05/08 07:44:47;;;;;;;2.72;1.23;;;9.30;96.50;;;;;;5084400;28;20090;-77
2021/05/08 07:47:13;;;;;;;3.58;0.90;;;9.30;97.50;;;;;;5077237;28;20062;-79
2021/05/08 07:49:39;;;;;;;6.05;1.33;;;9.40;94.00;;;;;;5082046;28;20042;-78
2021/05/08 07:52:08;;;;;;;2.20;1.25;;;9.50;95.10;;;;;;5082331;28;20040;-77
2021/05/08 07:54:34;;;;;;;8.05;1.20;;;9.60;97.00;;;;;;5079588;28;20476;-78
2021/05/08 07:56:59;;;;;;;5.97;1.38;;;9.70;94.30;;;;;;5082725;28;20020;-77
2021/05/08 07:59:25;;;;;;;3.90;1.13;;;9.70;92.30;;;;;;5081991;28;20012;-78
2021/05/08 08:01:51;;;;;;;2.58;1.00;;;9.80;93.70;;;;;;5086439;28;20020;-78
2021/05/08 08:04:16;;;;;;;8.90;1.25;;;9.80;90.90;;;;;;5085013;28;20062;-77
2021/05/08 08:06:42;;;;;;;4.28;1.23;;;9.80;90.70;;;;;;5083731;28;20036;-77
2021/05/08 08:09:08;;;;;;;3.97;1.00;;;9.80;91.20;;;;;;5085185;28;20547;-79
2021/05/08 08:11:34;;;;;;;3.40;1.13;;;9.90;91.10;;;;;;5085957;28;20046;-77
2021/05/08 08:13:59;;;;;;;2.40;1.35;;;10.00;90.50;;;;;;5085200;28;20031;-80
2021/05/08 08:16:25;;;;;;;2.75;1.33;;;10.10;89.50;;;;;;5081734;28;20020;-78
2021/05/08 08:18:51;;;;;;;1.15;0.90;;;10.10;90.70;;;;;;5080764;28;20103;-77
2021/05/08 08:21:16;;;;;;;3.75;0.80;;;10.30;89.00;;;;;;5074484;28;20036;-77
2021/05/08 08:23:42;;;;;;;1.70;1.08;;;10.50;88.00;;;;;;5079484;28;20016;-78
2021/05/08 08:26:07;;;;;;;1.70;1.10;;;10.70;83.10;;;;;;5080557;28;20028;-80
2021/05/08 08:28:33;;;;;;;4.07;1.75;;;10.80;83.10;;;;;;5076554;28;20119;-80
2021/05/08 08:30:59;;;;;;;1.85;1.27;;;11.00;81.10;;;;;;5085413;28;20114;-80
2021/05/08 08:33:24;;;;;;;6.22;1.33;;;11.10;79.60;;;;;;5082423;28;20035;-78
2021/05/08 08:35:50;;;;;;;3.03;1.60;;;11.00;82.10;;;;;;5086071;28;20497;-79
2021/05/08 08:38:16;;;;;;;2.03;1.60;;;10.90;80.10;;;;;;5082215;28;20020;-77
2021/05/08 08:40:43;;;;;;;6.90;1.90;;;11.00;78.10;;;;;;5084373;28;20359;-75
2021/05/08 08:43:11;;;;;;;8.05;1.23;;;10.90;79.70;;;;;;5077266;28;20021;-76
2021/05/08 08:45:36;;;;;;;2.05;1.30;;;10.90;79.00;;;;;;5080711;28;20760;-76
2021/05/08 08:48:02;;;;;;;3.70;1.50;;;10.90;79.30;;;;;;5080697;28;20032;-78
2021/05/08 08:50:29;;;;;;;2.80;1.83;;;11.00;78.10;;;;;;5079096;28;20143;-77
2021/05/08 08:52:55;;;;;;;2.40;1.35;;;11.20;76.20;;;;;;5081399;28;20036;-76
2021/05/08 08:55:20;;;;;;;2.88;1.65;;;11.40;76.90;;;;;;5074767;28;20411;-75
2021/05/08 08:57:48;;;;;;;3.55;1.38;;;11.60;75.50;;;;;;5085166;28;20059;-76
2021/05/08 09:00:15;;;;;;;1.60;1.10;;;11.50;73.40;;;;;;5084725;28;20394;-76
2021/05/08 09:02:43;;;;;;;5.38;1.33;;;11.50;73.00;;;;;;5086514;28;20024;-79
2021/05/08 09:05:12;;;;;;;4.63;1.20;;;11.50;74.00;;;;;;5081092;28;20055;-77
2021/05/08 09:07:45;;;;;;;7.57;1.30;;;11.80;69.90;;;;;;5082125;28;20058;-77
2021/05/08 09:10:25;;;;;;;4.57;1.65;;;11.80;69.90;;;;;;5079003;28;20029;-76
2021/05/08 09:12:52;;;;;;;5.35;1.10;;;11.90;70.40;;;;;;5078632;28;20032;-76
2021/05/08 09:15:32;;;;;;;3.75;2.05;;;11.80;71.70;;;;;;5082413;28;20031;-75
2021/05/08 09:17:57;;;;;;;3.40;1.27;;;11.80;70.80;;;;;;5080206;28;20024;-75
2021/05/08 09:20:23;;;;;;;1.90;1.00;;;11.70;69.90;;;;;;5082701;28;20024;-77
2021/05/08 09:22:52;;;;;;;2.55;1.45;;;11.90;68.70;;;;;;5080676;28;20490;-76
2021/05/08 09:25:19;;;;;;;2.17;1.30;;;12.10;70.50;;;;;;5078767;28;20694;-75
2021/05/08 09:27:50;;;;;;;0.52;0.50;;;12.30;67.00;;;;;;5072013;28;20021;-76
2021/05/08 09:30:24;;;;;;;1.05;0.90;;;12.20;63.80;;;;;;5070875;28;20532;-76
2021/05/08 09:32:55;;;;;;;1.70;1.25;;;12.10;63.40;;;;;;5075925;28;20187;-76
2021/05/08 09:35:28;;;;;;;;;;;11.90;65.30;;;;;;5084357;28;20055;-78
2021/05/08 09:38:12;;;;;;;3.80;1.33;;;11.90;66.00;;;;;;5077589;28;20384;-75
2021/05/08 09:40:43;;;;;;;1.13;1.02;;;11.90;67.00;;;;;;5081717;28;20026;-76
2021/05/08 09:43:11;;;;;;;1.27;0.90;;;11.90;67.20;;;;;;5076765;28;20039;-76
2021/05/08 09:45:42;;;;;;;2.85;1.00;;;12.00;66.60;;;;;;5079826;28;20534;-77
2021/05/08 09:48:33;;;;;;;5.03;1.02;;;12.00;66.00;;;;;;5076679;28;20484;-77
2021/05/08 09:51:17;;;;;;;0.88;0.82;;;12.20;66.30;;;;;;5081625;28;20494;-76
2021/05/08 09:53:42;;;;;;;1.35;0.90;;;12.50;67.90;;;;;;5084253;28;20059;-77
2021/05/08 09:56:32;;;;;;;2.00;1.25;;;12.80;65.20;;;;;;5083589;28;20028;-76
2021/05/08 09:59:33;;;;;;;2.30;1.65;;;12.90;62.80;;;;;;5076327;28;20028;-76
2021/05/08 10:02:05;;;;;;;2.33;1.47;;;12.60;62.80;;;;;;5082087;28;20107;-77
2021/05/08 10:04:31;;;;;;;1.77;1.10;;;12.30;63.90;;;;;;5083497;28;20077;-76
2021/05/08 10:07:06;;;;;;;1.50;1.40;;;12.30;66.60;;;;;;5082314;28;20080;-87
2021/05/08 10:09:32;;;;;;;1.55;0.95;;;12.60;65.70;;;;;;5075495;28;20066;-76
2021/05/08 10:12:01;;;;;;;1.58;1.10;;;12.80;65.40;;;;;;5080122;28;20048;-79
2021/05/08 10:14:27;;;;;;;1.63;1.20;;;13.10;66.40;;;;;;5078198;28;20062;-82
2021/05/08 10:16:53;;;;;;;2.65;1.33;;;13.40;62.40;;;;;;5079317;28;20048;-79
2021/05/08 10:19:19;;;;;;;4.88;1.13;;;13.70;59.10;;;;;;5079449;28;20028;-77
2021/05/08 10:21:46;;;;;;;3.78;0.98;;;13.80;58.20;;;;;;5084781;28;20023;-77
2021/05/08 10:24:13;;;;;;;1.58;1.35;;;13.90;58.90;;;;;;5081177;28;20499;-78
2021/05/08 10:26:38;;;;;;;1.90;1.13;;;13.90;58.10;;;;;;5084067;28;20035;-72
2021/05/08 10:29:04;;;;;;;1.20;1.10;;;14.00;58.20;;;;;;5080668;28;20115;-74
2021/05/08 10:31:30;;;;;;;1.17;1.00;;;14.10;57.00;;;;;;5084136;28;20402;-75
2021/05/08 10:33:56;;;;;;;2.72;1.15;;;14.20;59.20;;;;;;5078667;28;20751;-74
2021/05/08 10:36:44;;;;;;;4.65;1.67;;;14.40;59.10;;;;;;5076746;28;20111;-73
2021/05/08 10:39:09;;;;;;;7.82;2.05;;;14.20;57.30;;;;;;5079693;28;20101;-74
2021/05/08 10:42:04;;;;;;;1.42;0.98;;;14.10;60.30;;;;;;5083163;28;20040;-75
2021/05/08 10:44:43;;;;;;;2.80;2.03;;;14.20;55.80;;;;;;5079212;28;20040;-73
2021/05/08 10:47:09;;;;;;;4.72;1.50;;;14.30;55.40;;;;;;5080669;28;20436;-72
2021/05/08 10:49:34;;;;;;;2.05;1.20;;;14.10;56.10;;;;;;5082507;28;20036;-74
2021/05/08 10:52:02;;;;;;;5.43;1.75;;;13.90;54.40;;;;;;5083667;28;20035;-73
2021/05/08 10:54:42;;;;;;;11.20;5.25;;;13.90;55.70;;;;;;5078389;28;20232;-73
2021/05/08 10:57:18;;;;;;;8.18;2.30;;;14.20;55.80;;;;;;5072023;28;20054;-73
2021/05/08 11:00:07;;;;;;;4.05;1.85;;;14.20;54.30;;;;;;5078213;28;20106;-73
2021/05/08 11:02:44;;;;;;;1.80;1.40;;;14.30;55.00;;;;;;5079942;28;20066;-73
2021/05/08 11:05:26;;;;;;;3.83;1.85;;;14.70;55.00;;;;;;5072559;28;20031;-73
2021/05/08 11:07:53;;;;;;;2.10;1.48;;;14.80;53.90;;;;;;5084215;28;20020;-73
2021/05/08 11:10:34;;;;;;;2.00;1.38;;;14.70;54.20;;;;;;5082282;28;20032;-73
2021/05/08 11:13:11;;;;;;;1.85;1.33;;;14.70;53.70;;;;;;5081384;28;20127;-73
2021/05/08 11:16:07;;;;;;;2.10;1.23;;;15.10;54.00;;;;;;5080815;28;20498;-73
2021/05/08 11:18:33;;;;;;;2.55;1.67;;;15.50;54.20;;;;;;5083273;28;20020;-73
2021/05/08 11:21:05;;;;;;;4.78;1.60;;;15.80;50.60;;;;;;5084349;28;20115;-73
2021/05/08 11:24:01;;;;;;;2.20;1.38;;;16.20;50.60;;;;;;5079826;28;20032;-74
2021/05/08 11:26:30;;;;;;;4.80;1.80;;;16.70;50.30;;;;;;5075624;28;20042;-73
2021/05/08 11:29:03;;;;;;;1.30;1.20;;;17.40;49.90;;;;;;5077266;28;20024;-73
2021/05/08 11:31:50;;;;;;;5.13;2.70;;;18.10;47.10;;;;;;5083228;28;20593;-73
2021/05/08 11:34:20;;;;;;;1.58;1.48;;;18.50;44.00;;;;;;5082456;28;20028;-74
2021/05/08 11:36:50;;;;;;;1.33;1.23;;;19.00;46.70;;;;;;5081744;28;20024;-73
2021/05/08 11:39:18;;;;;;;4.30;1.60;;;19.50;42.10;;;;;;5073511;28;20028;-73
2021/05/08 11:41:47;;;;;;;2.35;1.60;;;19.70;43.00;;;;;;5077233;28;20632;-73
2021/05/08 11:44:20;;;;;;;3.15;1.95;;;20.10;41.10;;;;;;5077278;28;20268;-73
2021/05/08 11:46:54;;;;;;;2.17;1.40;;;20.40;37.90;;;;;;5080079;28;20028;-74
2021/05/08 11:49:28;;;;;;;2.60;1.70;;;19.60;39.50;;;;;;5080331;28;20165;-73
2021/05/08 11:51:55;;;;;;;4.05;1.63;;;19.00;39.90;;;;;;5082631;28;20060;-76
2021/05/08 11:54:20;;;;;;;5.35;2.83;;;18.60;41.00;;;;;;5081881;28;20470;-76
2021/05/08 11:56:46;;;;;;;11.30;3.05;;;18.70;42.70;;;;;;5081710;28;20028;-77
2021/05/08 11:59:11;;;;;;;3.50;2.72;;;19.40;41.90;;;;;;5075818;28;20021;-81
2021/05/08 12:01:40;;;;;;;5.10;1.73;;;20.10;43.10;;;;;;5076861;28;20024;-73
2021/05/08 12:04:06;;;;;;;5.55;1.80;;;21.10;38.60;;;;;;5080280;28;20028;-73
2021/05/08 12:06:32;;;;;;;6.45;2.97;;;21.40;38.00;;;;;;5080793;28;20067;-74
2021/05/08 12:09:08;;;;;;;9.23;4.47;;;21.70;38.10;;;;;;5082419;28;20083;-75
2021/05/08 12:11:33;;;;;;;3.85;1.75;;;21.80;37.60;;;;;;5080704;28;20024;-72
2021/05/08 12:14:13;;;;;;;10.88;3.55;;;22.20;37.80;;;;;;5079571;28;20028;-74
2021/05/08 12:16:40;;;;;;;3.00;2.13;;;23.20;37.80;;;;;;5070992;28;20094;-75
2021/05/08 12:19:06;;;;;;;2.80;2.10;;;24.50;35.10;;;;;;5079142;28;20031;-75
2021/05/08 12:21:35;;;;;;;7.75;4.55;;;25.10;32.60;;;;;;5081994;28;20119;-74
2021/05/08 12:24:01;;;;;;;10.85;2.88;;;24.60;30.90;;;;;;5083633;28;20478;-74
2021/05/08 12:26:27;;;;;;;5.95;3.28;;;23.10;31.40;;;;;;5077840;28;20489;-73
2021/05/08 12:28:54;;;;;;;5.97;3.65;;;21.80;35.70;;;;;;5080471;28;20024;-73
2021/05/08 12:31:34;;;;;;;5.13;3.97;;;20.80;35.50;;;;;;5082806;28;20024;-74
2021/05/08 12:34:12;;;;;;;2.80;2.03;;;20.30;36.60;;;;;;5083139;28;20498;-74
2021/05/08 12:36:40;;;;;;;5.75;3.38;;;19.90;37.10;;;;;;5080990;28;20494;-74
2021/05/08 12:39:22;;;;;;;2.30;1.90;;;19.10;37.30;;;;;;5079604;28;20035;-74
2021/05/08 12:42:01;;;;;;;2.63;1.45;;;18.60;39.30;;;;;;5079062;28;20024;-74
2021/05/08 12:44:33;;;;;;;3.15;2.47;;;19.40;41.30;;;;;;5082292;28;20028;-74
2021/05/08 12:47:19;;;;;;;10.13;2.88;;;19.20;39.80;;;;;;5082084;28;20036;-74
2021/05/08 12:50:11;;;;;;;3.75;2.42;;;20.00;40.30;;;;;;5085744;28;20378;-74
2021/05/08 12:52:44;;;;;;;8.20;1.77;;;22.20;36.40;;;;;;5086511;28;20038;-74
2021/05/08 12:55:26;;;;;;;3.17;1.40;;;23.60;35.10;;;;;;5084443;28;20040;-74
2021/05/08 12:57:52;;;;;;;2.25;1.30;;;22.60;34.50;;;;;;5080338;28;20024;-73